Terminal Aerodrome Forecast
Issued by NWS

Home | Current Version | Previous Version | Text Only | Print | Product List | Glossary On
Versions: 1 2 3 4 5 6 7 8 9 10 11 12 13 14 15 16 17 18
000
FTUS45 KABQ 291200 AAA
TAFROW
TAF AMD
KROW 291252Z 2913/3012 15008KT P6SM -RA BKN050
     FM291500 15008KT P6SM VCSH SCT050 BKN090
     FM291900 18010G18KT P6SM SCT060 SCT110
     FM300000 18010KT P6SM VCSH SCT060 BKN100
     FM300200 35005KT P6SM SCT130=

USA.gov is the U.S. government's official web portal to all federal, state and local government web resources and services.